createdAt,value
2022-08-27T00:02:02.166Z,22.10
2022-08-27T00:04:30.340Z,22.10
2022-08-27T00:06:58.528Z,22.20
2022-08-27T00:09:27.370Z,22.10
2022-08-27T00:11:55.622Z,22.10
2022-08-27T00:14:25.446Z,22.00
2022-08-27T00:16:53.423Z,22.10
2022-08-27T00:19:23.593Z,22.00
2022-08-27T00:21:55.709Z,22.10
2022-08-27T00:24:25.838Z,22.10
2022-08-27T00:26:53.838Z,22.00
2022-08-27T00:29:21.884Z,22.00
2022-08-27T00:31:53.023Z,22.00
2022-08-27T00:34:21.787Z,21.90
2022-08-27T00:36:50.520Z,21.90
2022-08-27T00:39:18.423Z,21.90
2022-08-27T00:41:46.334Z,21.90
2022-08-27T00:44:14.869Z,21.90
2022-08-27T00:46:46.165Z,21.90
2022-08-27T00:49:21.040Z,21.80
2022-08-27T00:51:53.880Z,21.80
2022-08-27T00:54:22.899Z,21.80
2022-08-27T00:56:52.074Z,21.70
2022-08-27T00:59:22.926Z,21.70
2022-08-27T01:02:08.903Z,21.70
2022-08-27T01:04:41.558Z,21.70
2022-08-27T01:07:10.436Z,21.70
2022-08-27T01:09:38.804Z,21.70
2022-08-27T01:12:07.109Z,21.70
2022-08-27T01:14:35.963Z,21.60
2022-08-27T01:17:05.211Z,21.60
2022-08-27T01:19:37.955Z,21.60
2022-08-27T01:22:19.156Z,21.60
2022-08-27T01:24:55.270Z,21.60
2022-08-27T01:27:25.858Z,21.60
2022-08-27T01:29:53.892Z,21.60
2022-08-27T01:32:24.904Z,21.60
2022-08-27T01:34:53.760Z,21.60
2022-08-27T01:37:24.069Z,21.60
2022-08-27T01:39:55.212Z,21.60
2022-08-27T01:42:25.791Z,21.50
2022-08-27T01:44:55.615Z,21.50
2022-08-27T01:47:28.182Z,21.50
2022-08-27T01:49:59.986Z,21.50
2022-08-27T01:52:31.071Z,21.50
2022-08-27T01:55:00.757Z,21.50
2022-08-27T01:57:29.382Z,21.50
2022-08-27T01:59:57.963Z,21.50
2022-08-27T02:02:26.311Z,21.40
2022-08-27T02:04:54.602Z,21.40
2022-08-27T02:07:22.662Z,21.40
2022-08-27T02:09:50.660Z,21.40
2022-08-27T02:12:20.083Z,21.40
2022-08-27T02:14:48.023Z,21.40
2022-08-27T02:17:16.326Z,21.40
2022-08-27T02:19:44.259Z,21.40
2022-08-27T02:22:12.503Z,21.40
2022-08-27T02:24:41.997Z,21.40
2022-08-27T02:27:10.312Z,21.40
2022-08-27T02:29:39.817Z,21.40
2022-08-27T02:32:08.083Z,21.30
2022-08-27T02:34:52.079Z,21.40
2022-08-27T02:37:20.836Z,21.40
2022-08-27T02:39:48.826Z,21.40
2022-08-27T02:42:16.734Z,21.30
2022-08-27T02:44:46.187Z,21.30
2022-08-27T02:47:15.299Z,21.30
2022-08-27T02:49:44.351Z,21.30
2022-08-27T02:52:12.823Z,21.30
2022-08-27T02:54:41.531Z,21.30
2022-08-27T02:57:09.508Z,21.30
2022-08-27T02:59:37.535Z,21.30
2022-08-27T03:02:07.045Z,21.20
2022-08-27T03:04:35.098Z,21.30
2022-08-27T03:07:03.083Z,21.30
2022-08-27T03:09:31.066Z,21.20
2022-08-27T03:11:59.018Z,21.20
2022-08-27T03:14:27.006Z,21.20
2022-08-27T03:16:55.194Z,21.20
2022-08-27T03:19:23.919Z,21.20
2022-08-27T03:21:54.652Z,21.20
2022-08-27T03:24:23.006Z,21.20
2022-08-27T03:26:53.853Z,21.20
2022-08-27T03:29:22.205Z,21.20
2022-08-27T03:31:50.179Z,21.20
2022-08-27T03:34:19.963Z,21.10
2022-08-27T03:36:51.408Z,21.10
2022-08-27T03:39:19.474Z,21.10
2022-08-27T03:41:54.450Z,21.10
2022-08-27T03:44:24.358Z,21.10
2022-08-27T03:46:53.065Z,21.10
2022-08-27T03:49:22.044Z,21.10
2022-08-27T03:51:52.515Z,21.00
2022-08-27T03:54:20.980Z,21.00
2022-08-27T03:56:48.947Z,21.00
2022-08-27T03:59:16.820Z,20.90
2022-08-27T04:01:45.722Z,20.90
2022-08-27T04:04:14.031Z,20.80
2022-08-27T04:06:42.526Z,20.80
2022-08-27T04:09:12.339Z,20.80
2022-08-27T04:11:40.287Z,20.80
2022-08-27T04:14:19.927Z,20.80
2022-08-27T04:16:56.009Z,20.80
2022-08-27T04:19:27.755Z,20.90
2022-08-27T04:22:00.127Z,20.80
2022-08-27T04:24:30.002Z,20.80
2022-08-27T04:26:58.522Z,20.80
2022-08-27T04:29:26.819Z,20.70
2022-08-27T04:31:54.977Z,20.70
2022-08-27T04:34:23.036Z,20.70
2022-08-27T04:36:52.329Z,20.70
2022-08-27T04:39:20.623Z,20.70
2022-08-27T04:41:51.766Z,20.70
2022-08-27T04:44:19.739Z,20.70
2022-08-27T04:46:49.223Z,20.70
2022-08-27T04:49:17.887Z,20.70
2022-08-27T04:51:46.951Z,20.70
2022-08-27T04:54:16.189Z,20.70
2022-08-27T04:56:45.616Z,20.70
2022-08-27T04:59:15.051Z,20.70
2022-08-27T05:01:43.878Z,20.70
2022-08-27T05:04:14.579Z,20.70
2022-08-27T05:06:45.270Z,20.70
2022-08-27T05:09:13.933Z,20.70
2022-08-27T05:11:43.787Z,20.70
2022-08-27T05:14:16.371Z,20.70
2022-08-27T05:16:44.498Z,20.70
2022-08-27T05:19:14.739Z,20.70
2022-08-27T05:21:46.930Z,20.70
2022-08-27T05:24:15.732Z,20.70
2022-08-27T05:26:43.810Z,20.70
2022-08-27T05:29:12.438Z,20.70
2022-08-27T05:31:42.889Z,20.70
2022-08-27T05:34:16.444Z,20.70
2022-08-27T05:36:53.351Z,20.70
2022-08-27T05:39:21.324Z,20.70
2022-08-27T05:41:49.270Z,20.60
2022-08-27T05:44:40.696Z,20.60
2022-08-27T05:47:06.866Z,20.60
2022-08-27T05:49:34.822Z,20.60
2022-08-27T05:52:02.869Z,20.60
2022-08-27T05:54:30.786Z,20.60
2022-08-27T05:56:58.697Z,20.60
2022-08-27T05:59:43.887Z,20.60
2022-08-27T06:02:13.382Z,20.60
2022-08-27T06:04:41.311Z,20.60
2022-08-27T06:07:10.519Z,20.60
2022-08-27T06:09:39.550Z,20.60
2022-08-27T06:12:09.131Z,20.60
2022-08-27T06:14:37.925Z,20.60
2022-08-27T06:17:06.247Z,20.60
2022-08-27T06:19:36.364Z,20.60
2022-08-27T06:22:09.950Z,20.60
2022-08-27T06:24:41.325Z,20.60
2022-08-27T06:27:11.425Z,20.60
2022-08-27T06:29:39.724Z,20.60
2022-08-27T06:32:07.840Z,20.60
2022-08-27T06:34:37.853Z,20.60
2022-08-27T06:37:06.078Z,20.60
2022-08-27T06:39:36.205Z,20.60
2022-08-27T06:42:06.255Z,20.50
2022-08-27T06:44:34.575Z,20.50
2022-08-27T06:47:03.692Z,20.50
2022-08-27T06:49:32.016Z,20.50
2022-08-27T06:52:01.444Z,20.50
2022-08-27T06:54:31.041Z,20.40
2022-08-27T06:57:00.741Z,20.50
2022-08-27T06:59:28.937Z,20.50
2022-08-27T07:01:57.028Z,20.50
2022-08-27T07:04:32.095Z,20.60
2022-08-27T07:07:03.028Z,20.60
2022-08-27T07:09:32.391Z,20.60
2022-08-27T07:12:00.926Z,20.60
2022-08-27T07:14:30.944Z,20.60
2022-08-27T07:17:02.158Z,20.60
2022-08-27T07:19:32.179Z,20.60
2022-08-27T07:22:01.615Z,20.60
2022-08-27T07:24:29.620Z,20.70
2022-08-27T07:26:57.693Z,20.70
2022-08-27T07:29:29.201Z,20.70
2022-08-27T07:31:59.782Z,20.80
2022-08-27T07:34:28.015Z,20.80
2022-08-27T07:36:56.031Z,20.80
2022-08-27T07:39:25.366Z,20.90
2022-08-27T07:42:10.852Z,20.90
2022-08-27T07:44:38.779Z,20.90
2022-08-27T07:47:08.757Z,20.90
2022-08-27T07:49:37.585Z,20.90
2022-08-27T07:52:05.594Z,20.90
2022-08-27T07:54:35.187Z,21.00
2022-08-27T07:57:03.225Z,21.00
2022-08-27T07:59:31.395Z,21.00
2022-08-27T08:01:59.474Z,21.00
2022-08-27T08:04:27.605Z,21.00
2022-08-27T08:06:56.603Z,21.00
2022-08-27T08:09:25.367Z,21.10
2022-08-27T08:11:55.039Z,21.10
2022-08-27T08:14:23.363Z,21.10
2022-08-27T08:16:51.528Z,21.20
2022-08-27T08:19:19.615Z,21.30
2022-08-27T08:21:47.592Z,21.30
2022-08-27T08:24:15.512Z,21.40
2022-08-27T08:26:44.220Z,21.40
2022-08-27T08:29:18.182Z,21.40
2022-08-27T08:31:49.921Z,21.40
2022-08-27T08:34:19.221Z,21.40
2022-08-27T08:36:52.445Z,21.40
2022-08-27T08:39:23.194Z,21.40
2022-08-27T08:41:54.384Z,21.50
2022-08-27T08:44:32.489Z,21.50
2022-08-27T08:47:05.441Z,21.50
2022-08-27T08:49:42.579Z,21.50
2022-08-27T08:52:31.401Z,21.60
2022-08-27T08:55:09.403Z,21.70
2022-08-27T08:57:43.294Z,21.70
2022-08-27T09:00:15.038Z,21.60
2022-08-27T09:02:50.411Z,21.60
2022-08-27T09:05:18.864Z,21.60
2022-08-27T09:08:01.247Z,21.60
2022-08-27T09:10:43.797Z,21.70
2022-08-27T09:13:21.784Z,21.60
2022-08-27T09:15:55.173Z,21.70
2022-08-27T09:18:27.952Z,21.70
2022-08-27T09:21:03.032Z,21.60
2022-08-27T09:23:43.200Z,21.60
2022-08-27T09:26:20.257Z,21.70
2022-08-27T09:29:05.483Z,21.70
2022-08-27T09:31:40.815Z,21.70
2022-08-27T09:34:08.832Z,21.70
2022-08-27T09:36:47.403Z,21.70
2022-08-27T09:39:15.408Z,21.80
2022-08-27T09:41:47.174Z,21.70
2022-08-27T09:44:18.927Z,21.60
2022-08-27T09:46:59.828Z,21.50
2022-08-27T09:49:27.973Z,21.50
2022-08-27T09:51:57.058Z,21.50
2022-08-27T09:54:39.262Z,21.50
2022-08-27T09:57:08.491Z,21.50
2022-08-27T09:59:38.798Z,21.50
2022-08-27T10:02:15.510Z,21.50
2022-08-27T10:04:51.008Z,21.60
2022-08-27T10:07:37.928Z,21.60
2022-08-27T10:10:14.347Z,21.60
2022-08-27T10:12:53.827Z,21.70
2022-08-27T10:15:22.555Z,21.70
2022-08-27T10:18:01.274Z,21.70
2022-08-27T10:20:36.909Z,21.70
2022-08-27T10:23:15.371Z,21.80
2022-08-27T10:25:53.921Z,21.80
2022-08-27T10:31:30.543Z,21.90
2022-08-27T10:34:12.320Z,21.90
2022-08-27T10:36:50.420Z,21.80
2022-08-27T10:39:28.252Z,21.90
2022-08-27T10:42:08.596Z,21.90
2022-08-27T10:44:46.509Z,21.80
2022-08-27T10:47:31.632Z,21.80
2022-08-27T10:50:06.469Z,21.80
2022-08-27T10:52:40.808Z,21.80
2022-08-27T10:55:14.999Z,21.90
2022-08-27T10:58:05.384Z,21.90
2022-08-27T11:00:44.307Z,22.00
2022-08-27T11:03:17.592Z,22.00
2022-08-27T11:05:48.690Z,22.00
2022-08-27T11:08:22.534Z,22.00
2022-08-27T11:10:54.595Z,22.00
2022-08-27T11:13:31.810Z,22.00
2022-08-27T11:16:03.008Z,22.00
2022-08-27T11:18:40.544Z,22.00
2022-08-27T11:21:18.036Z,22.00
2022-08-27T11:23:49.355Z,22.20
2022-08-27T11:26:17.438Z,22.30
2022-08-27T11:28:49.818Z,22.30
2022-08-27T11:31:30.703Z,22.40
2022-08-27T11:34:05.745Z,22.50
2022-08-27T11:37:02.660Z,22.60
2022-08-27T11:39:51.121Z,22.70
2022-08-27T11:42:35.992Z,22.80
2022-08-27T11:45:08.619Z,22.80
2022-08-27T11:47:37.195Z,22.80
2022-08-27T11:50:18.846Z,22.70
2022-08-27T11:52:58.024Z,22.80
2022-08-27T11:55:30.215Z,22.80
2022-08-27T11:58:08.720Z,22.80
2022-08-27T12:00:39.345Z,22.80
2022-08-27T12:03:10.318Z,22.80
2022-08-27T12:05:45.649Z,22.90
2022-08-27T12:08:34.782Z,23.00
2022-08-27T12:11:21.077Z,23.00
2022-08-27T12:13:58.124Z,23.10
2022-08-27T12:16:33.581Z,23.20
2022-08-27T12:19:12.841Z,23.20
2022-08-27T12:21:57.235Z,23.20
2022-08-27T12:24:53.018Z,23.30
2022-08-27T12:27:35.445Z,23.30
2022-08-27T12:30:19.715Z,23.30
2022-08-27T12:32:51.112Z,23.40
2022-08-27T12:35:21.609Z,23.40
2022-08-27T12:37:54.061Z,23.30
2022-08-27T12:40:27.057Z,23.40
2022-08-27T12:43:07.178Z,23.40
2022-08-27T12:45:42.786Z,23.40
2022-08-27T12:48:11.749Z,23.30
2022-08-27T12:50:40.188Z,23.40
2022-08-27T12:53:24.784Z,23.40
2022-08-27T12:56:04.010Z,23.40
2022-08-27T12:58:45.348Z,23.50
2022-08-27T13:01:32.852Z,23.50
2022-08-27T13:04:01.927Z,23.60
2022-08-27T13:06:33.255Z,23.70
2022-08-27T13:09:04.856Z,23.70
2022-08-27T13:11:35.138Z,23.70
2022-08-27T13:14:09.357Z,23.70
2022-08-27T13:16:39.966Z,23.70
2022-08-27T13:19:09.458Z,23.80
2022-08-27T13:21:37.667Z,23.80
2022-08-27T13:24:08.077Z,23.80
2022-08-27T13:26:38.943Z,23.90
2022-08-27T13:29:07.893Z,23.90
2022-08-27T13:31:36.624Z,23.90
2022-08-27T13:34:06.631Z,23.90
2022-08-27T13:36:38.013Z,23.90
2022-08-27T13:39:08.258Z,23.90
2022-08-27T13:41:38.460Z,23.70
2022-08-27T13:44:11.648Z,23.70
2022-08-27T13:46:47.920Z,23.70
2022-08-27T13:49:22.905Z,23.70
2022-08-27T13:51:51.542Z,23.70
2022-08-27T13:54:20.351Z,23.70
2022-08-27T13:57:08.212Z,23.70
2022-08-27T13:59:42.169Z,23.60
2022-08-27T14:02:25.179Z,23.60
2022-08-27T14:05:09.567Z,23.50
2022-08-27T14:07:44.301Z,23.50
2022-08-27T14:10:33.560Z,23.50
2022-08-27T14:13:04.510Z,23.40
2022-08-27T14:15:35.440Z,23.40
2022-08-27T14:18:05.734Z,23.40
2022-08-27T14:20:34.056Z,23.40
2022-08-27T14:23:02.025Z,23.40
2022-08-27T14:25:31.629Z,23.40
2022-08-27T14:27:59.581Z,23.40
2022-08-27T14:30:29.896Z,23.50
2022-08-27T14:33:00.187Z,23.40
2022-08-27T14:35:29.205Z,23.50
2022-08-27T14:37:57.837Z,23.50
2022-08-27T14:40:25.845Z,23.50
2022-08-27T14:42:55.597Z,23.50
2022-08-27T14:45:24.402Z,23.50
2022-08-27T14:47:52.696Z,23.40
2022-08-27T14:50:21.587Z,23.30
2022-08-27T14:52:50.791Z,23.40
2022-08-27T14:55:18.895Z,23.40
2022-08-27T14:57:46.886Z,23.40
2022-08-27T15:00:16.843Z,23.40
2022-08-27T15:02:48.822Z,23.30
2022-08-27T15:05:18.014Z,23.30
2022-08-27T15:07:47.406Z,23.30
2022-08-27T15:10:15.767Z,23.30
2022-08-27T15:12:44.386Z,23.30
2022-08-27T15:15:14.345Z,23.30
2022-08-27T15:17:44.307Z,23.20
2022-08-27T15:20:20.137Z,23.20
2022-08-27T15:22:52.402Z,23.20
2022-08-27T15:25:21.617Z,23.20
2022-08-27T15:27:50.081Z,23.20
2022-08-27T15:30:23.745Z,23.20
2022-08-27T15:32:53.221Z,23.20
2022-08-27T15:35:26.221Z,23.20
2022-08-27T15:37:55.511Z,23.10
2022-08-27T15:40:25.001Z,23.10
2022-08-27T15:42:57.491Z,23.10
2022-08-27T15:45:27.705Z,23.20
2022-08-27T15:47:58.103Z,23.10
2022-08-27T15:50:27.898Z,23.20
2022-08-27T15:52:59.357Z,23.10
2022-08-27T15:55:33.829Z,23.20
2022-08-27T15:58:02.453Z,23.10
2022-08-27T16:00:33.607Z,23.10
2022-08-27T16:03:04.135Z,23.10
2022-08-27T16:05:37.350Z,23.10
2022-08-27T16:08:05.694Z,23.10
2022-08-27T16:10:33.965Z,23.10
2022-08-27T16:13:02.497Z,23.10
2022-08-27T16:15:30.927Z,23.00
2022-08-27T16:18:01.726Z,23.00
2022-08-27T16:20:31.293Z,23.00
2022-08-27T16:22:59.774Z,23.00
2022-08-27T16:25:28.135Z,23.00
2022-08-27T16:27:57.915Z,23.00
2022-08-27T16:30:26.931Z,23.00
2022-08-27T16:32:55.791Z,23.00
2022-08-27T16:35:25.024Z,23.00
2022-08-27T16:37:54.435Z,22.90
2022-08-27T16:40:22.881Z,22.90
2022-08-27T16:42:52.307Z,22.90
2022-08-27T16:45:22.874Z,22.80
2022-08-27T16:48:11.505Z,22.80
2022-08-27T16:50:41.619Z,22.80
2022-08-27T16:53:14.203Z,22.80
2022-08-27T16:55:43.593Z,22.80
2022-08-27T16:58:18.752Z,22.80
2022-08-27T17:00:51.331Z,22.80
2022-08-27T17:03:25.722Z,22.80
2022-08-27T17:05:53.857Z,22.70
2022-08-27T17:08:26.707Z,22.70
2022-08-27T17:10:56.285Z,22.70
2022-08-27T17:13:29.926Z,22.70
2022-08-27T17:16:00.845Z,22.70
2022-08-27T17:18:29.877Z,22.70
2022-08-27T17:20:59.988Z,22.60
2022-08-27T17:23:34.336Z,22.60
2022-08-27T17:26:02.331Z,22.60
2022-08-27T17:28:30.312Z,22.60
2022-08-27T17:30:59.018Z,22.60
2022-08-27T17:33:31.443Z,22.60
2022-08-27T17:35:59.872Z,22.50
2022-08-27T17:38:33.995Z,22.50
2022-08-27T17:41:06.722Z,22.50
2022-08-27T17:43:35.067Z,22.50
2022-08-27T17:46:03.129Z,22.50
2022-08-27T17:48:31.154Z,22.50
2022-08-27T17:50:59.126Z,22.40
2022-08-27T17:53:27.952Z,22.40
2022-08-27T17:56:04.132Z,22.40
2022-08-27T17:58:41.269Z,22.40
2022-08-27T18:01:10.477Z,22.40
2022-08-27T18:03:47.521Z,22.40
2022-08-27T18:06:19.092Z,22.40
2022-08-27T18:08:47.887Z,22.40
2022-08-27T18:11:18.512Z,22.40
2022-08-27T18:13:52.377Z,22.40
2022-08-27T18:16:20.551Z,22.40
2022-08-27T18:18:48.820Z,22.40
2022-08-27T18:21:25.083Z,22.40
2022-08-27T18:23:55.149Z,22.40
2022-08-27T18:26:28.587Z,22.40
2022-08-27T18:28:57.466Z,22.30
2022-08-27T18:31:29.715Z,22.30
2022-08-27T18:33:58.032Z,22.30
2022-08-27T18:36:26.530Z,22.30
2022-08-27T18:38:54.702Z,22.30
2022-08-27T18:41:25.261Z,22.30
2022-08-27T18:43:58.886Z,22.30
2022-08-27T18:46:27.096Z,22.30
2022-08-27T18:48:55.050Z,22.30
2022-08-27T18:51:23.356Z,22.30
2022-08-27T18:53:51.404Z,22.30
2022-08-27T18:56:20.343Z,22.20
2022-08-27T18:58:49.832Z,22.20
2022-08-27T19:01:20.757Z,22.20
2022-08-27T19:03:51.551Z,22.10
2022-08-27T19:06:20.610Z,22.10
2022-08-27T19:08:49.975Z,22.10
2022-08-27T19:11:18.456Z,22.10
2022-08-27T19:13:50.416Z,22.10
2022-08-27T19:16:26.140Z,22.10
2022-08-27T19:18:54.201Z,22.10
2022-08-27T19:21:22.277Z,22.10
2022-08-27T19:23:52.642Z,22.10
2022-08-27T19:26:23.490Z,22.00
2022-08-27T19:28:51.573Z,22.00
2022-08-27T19:31:23.993Z,22.10
2022-08-27T19:33:58.955Z,22.00
2022-08-27T19:36:31.583Z,22.10
2022-08-27T19:39:00.059Z,22.00
2022-08-27T19:41:28.194Z,22.00
2022-08-27T19:43:56.218Z,22.00
2022-08-27T19:46:26.550Z,22.00
2022-08-27T19:48:55.354Z,22.00
2022-08-27T19:51:23.339Z,21.90
2022-08-27T19:53:51.286Z,21.90
2022-08-27T19:56:19.719Z,21.90
2022-08-27T19:58:47.905Z,21.90
2022-08-27T20:01:17.904Z,21.90
2022-08-27T20:03:47.450Z,21.90
2022-08-27T20:06:15.492Z,21.90
2022-08-27T20:08:43.411Z,21.90
2022-08-27T20:11:11.388Z,21.90
2022-08-27T20:13:39.898Z,21.90
2022-08-27T20:16:18.561Z,21.90
2022-08-27T20:18:47.891Z,21.90
2022-08-27T20:21:15.834Z,21.90
2022-08-27T20:23:43.805Z,21.90
2022-08-27T20:26:14.603Z,21.90
2022-08-27T20:28:43.773Z,21.90
2022-08-27T20:31:15.341Z,21.90
2022-08-27T20:33:43.915Z,21.90
2022-08-27T20:36:14.155Z,21.90
2022-08-27T20:38:42.231Z,21.90
2022-08-27T20:41:10.329Z,21.90
2022-08-27T20:43:38.366Z,21.90
2022-08-27T20:46:06.570Z,21.90
2022-08-27T20:48:38.654Z,21.90
2022-08-27T20:51:06.956Z,21.90
2022-08-27T20:53:36.496Z,21.90
2022-08-27T20:56:04.760Z,21.80
2022-08-27T20:58:49.953Z,21.80
2022-08-27T21:01:18.013Z,21.80
2022-08-27T21:03:46.073Z,21.80
2022-08-27T21:06:14.403Z,21.80
2022-08-27T21:08:43.701Z,21.70
2022-08-27T21:11:13.697Z,21.80
2022-08-27T21:13:55.783Z,21.70
2022-08-27T21:16:25.158Z,21.70
2022-08-27T21:18:53.932Z,21.70
2022-08-27T21:21:22.357Z,21.70
2022-08-27T21:23:51.743Z,21.70
2022-08-27T21:26:22.749Z,21.70
2022-08-27T21:28:56.017Z,21.70
2022-08-27T21:31:24.699Z,21.70
2022-08-27T21:33:55.719Z,21.70
2022-08-27T21:36:23.911Z,21.70
2022-08-27T21:38:53.233Z,21.70
2022-08-27T21:41:21.320Z,21.70
2022-08-27T21:43:49.278Z,21.70
2022-08-27T21:46:17.494Z,21.70
2022-08-27T21:48:45.447Z,21.70
2022-08-27T21:51:16.049Z,21.70
2022-08-27T21:53:53.999Z,21.70
2022-08-27T21:56:22.213Z,21.70
2022-08-27T21:58:50.178Z,21.70
2022-08-27T22:01:18.200Z,21.70
2022-08-27T22:03:49.343Z,21.70
2022-08-27T22:06:17.422Z,21.70
2022-08-27T22:08:45.427Z,21.70
2022-08-27T22:11:20.613Z,21.60
2022-08-27T22:13:55.898Z,21.70
2022-08-27T22:16:23.955Z,21.60
2022-08-27T22:18:56.610Z,21.60
2022-08-27T22:21:25.113Z,21.60
2022-08-27T22:23:53.529Z,21.60
2022-08-27T22:26:23.379Z,21.60
2022-08-27T22:28:53.994Z,21.60
2022-08-27T22:31:25.943Z,21.60
2022-08-27T22:33:53.944Z,21.60
2022-08-27T22:36:22.668Z,21.50
2022-08-27T22:38:50.641Z,21.50
2022-08-27T22:41:18.966Z,21.50
2022-08-27T22:43:50.390Z,21.40
2022-08-27T22:46:24.673Z,21.40
2022-08-27T22:48:52.644Z,21.40
2022-08-27T22:51:20.671Z,21.40
2022-08-27T22:53:48.623Z,21.40
2022-08-27T22:56:16.954Z,21.30
2022-08-27T22:58:46.128Z,21.30
2022-08-27T23:01:19.539Z,21.20
2022-08-27T23:03:47.759Z,21.30
2022-08-27T23:06:15.893Z,21.20
2022-08-27T23:08:43.881Z,21.20
2022-08-27T23:11:12.308Z,21.20
2022-08-27T23:13:41.120Z,21.20
2022-08-27T23:16:11.370Z,21.10
2022-08-27T23:18:40.745Z,21.00
2022-08-27T23:21:09.338Z,20.90
2022-08-27T23:23:38.057Z,20.90
2022-08-27T23:26:23.671Z,20.90
2022-08-27T23:28:51.625Z,20.90
2022-08-27T23:31:19.840Z,20.90
2022-08-27T23:33:52.084Z,20.90
2022-08-27T23:36:20.299Z,20.90
2022-08-27T23:38:48.350Z,20.90
2022-08-27T23:41:16.878Z,20.90
2022-08-27T23:43:45.520Z,20.90
2022-08-27T23:46:14.105Z,20.80
2022-08-27T23:48:42.146Z,20.70
2022-08-27T23:51:11.504Z,20.70
2022-08-27T23:53:39.727Z,20.70
2022-08-27T23:56:08.014Z,20.70
2022-08-27T23:58:35.972Z,20.80
